Tropical Cyclones
[Index]
Main Index Home Page Stock Weather Photos Extreme Storms Discussion Storm News and Storm Chasing Reports Tropical Cyclones / Hurricanes / Typhoons Weather Data and Links Wild Fires / Bushfires Weather Observation Techniques Weather Picture Catalogue Tornado Pictures and Reports Stock Video Footage and DVDs for sale
Season 1957-1958 Tropical Cyclone 195802 Track Map
Season 1957-1958 Summaries: [BoM-AU] [JTWC-AU] [JTWC-SIO] [JTWC-SPAC] [JTWC-SH]
<<- Previous TC | JTWC 1957-1958 Season | Next TC ->>

click for intensity scale information  Lat/long Grid: Show Hide

 Date Labels: Show Hide

Joint Typhoon Warning Centre Cyclone Data

Name: 195802
Number: 309 / 5802

01 Dec 1957 00:00 UTC to 08 Dec 1957 00:00 UTC

    date/time    lat    long     hPa   cat  kts
1957-12-01 00   11.1   175.0W                             
1957-12-01 06   11.2   175.4W                             
1957-12-01 12   11.3   175.7W                             
1957-12-01 18   11.4   176.0W                             
1957-12-02 00   11.5   176.2W                             
1957-12-02 06   11.5   176.7W                             
1957-12-02 12   11.4   177.2W                             
1957-12-02 18   11.1   177.3W                             
1957-12-03 00   10.9   177.0W                             
1957-12-03 06   11.0   176.3W                             
1957-12-03 12   11.3   175.6W                             
1957-12-03 18   11.8   175.3W                             
1957-12-04 00   12.4   175.5W                             
1957-12-04 06   12.9   176.0W                             
1957-12-04 12   13.3   176.5W                             
1957-12-04 18   13.5   177.0W                             
1957-12-05 00   13.7   177.4W                             
1957-12-05 06   14.3   177.8W                             
1957-12-05 12   15.0   177.8W                             
1957-12-05 18   15.5   177.5W                             
1957-12-06 00   16.0   177.1W                             
1957-12-06 06   16.6   176.8W                             
1957-12-06 12   17.3   176.4W                             
1957-12-06 18   17.9   176.1W                             
1957-12-07 00   18.5   175.8W                             
1957-12-07 06   19.3   175.0W                             
1957-12-07 12   20.2   174.0W                             
1957-12-07 18   20.9   173.3W                             
1957-12-08 00   21.6   172.8W                             
Winds are 1-min average.

Tropical cyclone tracks developed by Michael Bath using data from the Joint Typhoon Warning Centre Best Tracks and Google Maps.


[Australian Severe Weather index] [Copyright Notice] [Email Contacts] [Search This Site] [Privacy Policy]
Document: tropical_cyclone_195802.htm Updated: 18 September 2016